sensor_id;sensor_type;location;lat;lon;timestamp;P1;durP1;ratioP1;P2;durP2;ratioP2
62509;SDS011;48558;48.242;11.654;2022-08-11T00:02:03;5.53;;;2.92;;
62509;SDS011;48558;48.242;11.654;2022-08-11T00:07:16;3.10;;;2.80;;
62509;SDS011;48558;48.242;11.654;2022-08-11T00:12:21;2.75;;;2.50;;
62509;SDS011;48558;48.242;11.654;2022-08-11T00:17:29;2.50;;;2.30;;
62509;SDS011;48558;48.242;11.654;2022-08-11T00:22:35;3.03;;;2.72;;
62509;SDS011;48558;48.242;11.654;2022-08-11T00:27:44;2.80;;;2.60;;
62509;SDS011;48558;48.242;11.654;2022-08-11T00:32:53;2.70;;;2.50;;
62509;SDS011;48558;48.242;11.654;2022-08-11T00:38:01;3.38;;;2.88;;
62509;SDS011;48558;48.242;11.654;2022-08-11T00:43:16;2.88;;;2.67;;
62509;SDS011;48558;48.242;11.654;2022-08-11T00:48:27;2.72;;;2.47;;
62509;SDS011;48558;48.242;11.654;2022-08-11T00:53:51;2.92;;;2.58;;
62509;SDS011;48558;48.242;11.654;2022-08-11T01:10:39;3.30;;;2.80;;
62509;SDS011;48558;48.242;11.654;2022-08-11T01:15:57;2.67;;;2.47;;
62509;SDS011;48558;48.242;11.654;2022-08-11T01:44:06;4.35;;;2.83;;
62509;SDS011;48558;48.242;11.654;2022-08-11T01:49:43;5.00;;;2.50;;
62509;SDS011;48558;48.242;11.654;2022-08-11T02:00:32;4.03;;;2.97;;
62509;SDS011;48558;48.242;11.654;2022-08-11T02:05:56;3.50;;;3.20;;
62509;SDS011;48558;48.242;11.654;2022-08-11T02:11:51;3.33;;;3.03;;
62509;SDS011;48558;48.242;11.654;2022-08-11T02:22:19;2.78;;;2.58;;
62509;SDS011;48558;48.242;11.654;2022-08-11T02:33:19;3.60;;;3.00;;
62509;SDS011;48558;48.242;11.654;2022-08-11T02:38:31;3.10;;;2.80;;
62509;SDS011;48558;48.242;11.654;2022-08-11T02:43:52;3.50;;;3.20;;
62509;SDS011;48558;48.242;11.654;2022-08-11T02:55:19;3.60;;;2.85;;
62509;SDS011;48558;48.242;11.654;2022-08-11T03:00:51;3.40;;;3.10;;
62509;SDS011;48558;48.242;11.654;2022-08-11T03:33:48;4.70;;;3.35;;
62509;SDS011;48558;48.242;11.654;2022-08-11T03:39:12;6.65;;;4.00;;
62509;SDS011;48558;48.242;11.654;2022-08-11T04:57:50;4.45;;;4.05;;
62509;SDS011;48558;48.242;11.654;2022-08-11T05:03:38;4.38;;;3.97;;
62509;SDS011;48558;48.242;11.654;2022-08-11T05:14:47;4.68;;;3.78;;
62509;SDS011;48558;48.242;11.654;2022-08-11T05:20:13;4.35;;;3.63;;
62509;SDS011;48558;48.242;11.654;2022-08-11T05:25:36;5.82;;;3.80;;
62509;SDS011;48558;48.242;11.654;2022-08-11T05:31:35;5.93;;;4.15;;
62509;SDS011;48558;48.242;11.654;2022-08-11T05:37:10;6.43;;;3.88;;
62509;SDS011;48558;48.242;11.654;2022-08-11T05:42:30;4.72;;;4.13;;
62509;SDS011;48558;48.242;11.654;2022-08-11T05:47:56;3.65;;;3.35;;
62509;SDS011;48558;48.242;11.654;2022-08-11T05:53:20;4.95;;;3.30;;
62509;SDS011;48558;48.242;11.654;2022-08-11T05:58:48;6.70;;;3.50;;
62509;SDS011;48558;48.242;11.654;2022-08-11T06:03:55;7.07;;;3.78;;
62509;SDS011;48558;48.242;11.654;2022-08-11T06:14:28;4.80;;;3.63;;
62509;SDS011;48558;48.242;11.654;2022-08-11T06:19:34;5.85;;;3.40;;
62509;SDS011;48558;48.242;11.654;2022-08-11T06:24:41;4.65;;;3.30;;
62509;SDS011;48558;48.242;11.654;2022-08-11T06:29:54;8.00;;;3.75;;
62509;SDS011;48558;48.242;11.654;2022-08-11T06:40:32;4.07;;;3.28;;
62509;SDS011;48558;48.242;11.654;2022-08-11T06:45:56;3.92;;;3.55;;
62509;SDS011;48558;48.242;11.654;2022-08-11T06:51:07;4.18;;;3.50;;
62509;SDS011;48558;48.242;11.654;2022-08-11T06:56:21;8.10;;;4.55;;
62509;SDS011;48558;48.242;11.654;2022-08-11T07:13:37;3.25;;;3.03;;
62509;SDS011;48558;48.242;11.654;2022-08-11T07:19:03;3.55;;;2.70;;
62509;SDS011;48558;48.242;11.654;2022-08-11T07:24:29;5.05;;;2.90;;
62509;SDS011;48558;48.242;11.654;2022-08-11T07:30:02;4.00;;;3.00;;
62509;SDS011;48558;48.242;11.654;2022-08-11T07:35:12;2.90;;;2.70;;
62509;SDS011;48558;48.242;11.654;2022-08-11T07:40:21;4.97;;;3.30;;
62509;SDS011;48558;48.242;11.654;2022-08-11T07:45:26;4.57;;;2.75;;
62509;SDS011;48558;48.242;11.654;2022-08-11T07:50:49;3.33;;;3.03;;
62509;SDS011;48558;48.242;11.654;2022-08-11T07:56:12;3.08;;;2.70;;
62509;SDS011;48558;48.242;11.654;2022-08-11T08:01:23;8.90;;;2.67;;
62509;SDS011;48558;48.242;11.654;2022-08-11T08:06:47;4.32;;;2.80;;
62509;SDS011;48558;48.242;11.654;2022-08-11T08:12:09;5.13;;;2.90;;
62509;SDS011;48558;48.242;11.654;2022-08-11T08:17:34;3.03;;;2.70;;
62509;SDS011;48558;48.242;11.654;2022-08-11T08:23:14;3.35;;;2.72;;
62509;SDS011;48558;48.242;11.654;2022-08-11T08:28:19;6.82;;;2.63;;
62509;SDS011;48558;48.242;11.654;2022-08-11T08:33:27;4.07;;;2.50;;
62509;SDS011;48558;48.242;11.654;2022-08-11T08:38:32;7.47;;;2.40;;
62509;SDS011;48558;48.242;11.654;2022-08-11T08:43:39;2.92;;;2.22;;
62509;SDS011;48558;48.242;11.654;2022-08-11T08:48:50;4.18;;;2.15;;
62509;SDS011;48558;48.242;11.654;2022-08-11T08:53:56;2.95;;;2.05;;
62509;SDS011;48558;48.242;11.654;2022-08-11T08:59:20;2.10;;;2.00;;
62509;SDS011;48558;48.242;11.654;2022-08-11T09:04:26;3.63;;;2.20;;
62509;SDS011;48558;48.242;11.654;2022-08-11T09:09:31;3.97;;;2.15;;
62509;SDS011;48558;48.242;11.654;2022-08-11T09:14:37;4.95;;;2.50;;
62509;SDS011;48558;48.242;11.654;2022-08-11T09:20:05;3.20;;;2.17;;
62509;SDS011;48558;48.242;11.654;2022-08-11T09:25:12;5.55;;;2.30;;
62509;SDS011;48558;48.242;11.654;2022-08-11T09:30:36;3.03;;;2.00;;
62509;SDS011;48558;48.242;11.654;2022-08-11T09:35:44;2.28;;;1.90;;
62509;SDS011;48558;48.242;11.654;2022-08-11T09:40:50;2.05;;;1.92;;
62509;SDS011;48558;48.242;11.654;2022-08-11T09:45:58;2.15;;;1.95;;
62509;SDS011;48558;48.242;11.654;2022-08-11T09:51:06;4.70;;;2.25;;
62509;SDS011;48558;48.242;11.654;2022-08-11T09:56:14;3.47;;;2.30;;
62509;SDS011;48558;48.242;11.654;2022-08-11T10:01:40;3.25;;;1.70;;
62509;SDS011;48558;48.242;11.654;2022-08-11T10:06:49;3.17;;;1.90;;
62509;SDS011;48558;48.242;11.654;2022-08-11T10:12:09;1.95;;;1.77;;
62509;SDS011;48558;48.242;11.654;2022-08-11T10:17:17;3.65;;;1.90;;
62509;SDS011;48558;48.242;11.654;2022-08-11T10:22:25;2.20;;;2.03;;
62509;SDS011;48558;48.242;11.654;2022-08-11T10:27:48;1.98;;;1.55;;
62509;SDS011;48558;48.242;11.654;2022-08-11T10:33:20;3.35;;;1.60;;
62509;SDS011;48558;48.242;11.654;2022-08-11T10:39:01;2.58;;;1.40;;
62509;SDS011;48558;48.242;11.654;2022-08-11T10:44:07;4.45;;;1.63;;
62509;SDS011;48558;48.242;11.654;2022-08-11T10:49:12;1.80;;;1.70;;
62509;SDS011;48558;48.242;11.654;2022-08-11T10:54:16;1.60;;;1.50;;
62509;SDS011;48558;48.242;11.654;2022-08-11T10:59:38;3.13;;;1.73;;
62509;SDS011;48558;48.242;11.654;2022-08-11T11:04:56;4.97;;;1.70;;
62509;SDS011;48558;48.242;11.654;2022-08-11T11:10:00;2.33;;;2.00;;
62509;SDS011;48558;48.242;11.654;2022-08-11T11:15:07;3.08;;;1.90;;
62509;SDS011;48558;48.242;11.654;2022-08-11T11:20:40;1.60;;;1.40;;
62509;SDS011;48558;48.242;11.654;2022-08-11T11:26:07;2.00;;;1.60;;
62509;SDS011;48558;48.242;11.654;2022-08-11T11:31:39;3.95;;;1.48;;
62509;SDS011;48558;48.242;11.654;2022-08-11T11:36:54;1.73;;;1.60;;
62509;SDS011;48558;48.242;11.654;2022-08-11T11:42:03;1.70;;;1.60;;
62509;SDS011;48558;48.242;11.654;2022-08-11T11:47:13;2.47;;;1.52;;
62509;SDS011;48558;48.242;11.654;2022-08-11T11:52:23;2.72;;;1.50;;
62509;SDS011;48558;48.242;11.654;2022-08-11T11:57:30;5.00;;;1.58;;
62509;SDS011;48558;48.242;11.654;2022-08-11T12:03:09;1.85;;;1.50;;
62509;SDS011;48558;48.242;11.654;2022-08-11T12:08:14;2.40;;;1.40;;
62509;SDS011;48558;48.242;11.654;2022-08-11T12:13:21;1.88;;;1.58;;
62509;SDS011;48558;48.242;11.654;2022-08-11T12:18:45;1.70;;;1.60;;
62509;SDS011;48558;48.242;11.654;2022-08-11T12:23:53;2.20;;;1.45;;
62509;SDS011;48558;48.242;11.654;2022-08-11T12:29:18;1.80;;;1.70;;
62509;SDS011;48558;48.242;11.654;2022-08-11T12:34:24;1.55;;;1.45;;
62509;SDS011;48558;48.242;11.654;2022-08-11T12:39:41;3.05;;;1.70;;
62509;SDS011;48558;48.242;11.654;2022-08-11T12:45:27;1.65;;;1.55;;
62509;SDS011;48558;48.242;11.654;2022-08-11T12:50:31;3.35;;;1.90;;
62509;SDS011;48558;48.242;11.654;2022-08-11T12:55:55;3.22;;;1.60;;
62509;SDS011;48558;48.242;11.654;2022-08-11T13:01:23;1.70;;;1.60;;
62509;SDS011;48558;48.242;11.654;2022-08-11T13:06:46;1.88;;;1.60;;
62509;SDS011;48558;48.242;11.654;2022-08-11T13:11:50;2.85;;;1.70;;
62509;SDS011;48558;48.242;11.654;2022-08-11T13:17:12;1.70;;;1.60;;
62509;SDS011;48558;48.242;11.654;2022-08-11T13:22:45;1.90;;;1.80;;
62509;SDS011;48558;48.242;11.654;2022-08-11T13:27:55;2.47;;;1.60;;
62509;SDS011;48558;48.242;11.654;2022-08-11T13:33:03;2.40;;;1.80;;
62509;SDS011;48558;48.242;11.654;2022-08-11T13:38:09;1.77;;;1.65;;
62509;SDS011;48558;48.242;11.654;2022-08-11T13:43:21;2.88;;;1.70;;
62509;SDS011;48558;48.242;11.654;2022-08-11T13:48:25;3.28;;;1.60;;
62509;SDS011;48558;48.242;11.654;2022-08-11T13:53:30;2.15;;;1.90;;
62509;SDS011;48558;48.242;11.654;2022-08-11T13:58:34;2.35;;;1.63;;
62509;SDS011;48558;48.242;11.654;2022-08-11T14:03:41;2.53;;;1.50;;
62509;SDS011;48558;48.242;11.654;2022-08-11T14:09:07;1.60;;;1.50;;
62509;SDS011;48558;48.242;11.654;2022-08-11T14:14:12;4.40;;;1.60;;
62509;SDS011;48558;48.242;11.654;2022-08-11T14:19:23;2.65;;;1.60;;
62509;SDS011;48558;48.242;11.654;2022-08-11T14:24:29;1.40;;;1.30;;
62509;SDS011;48558;48.242;11.654;2022-08-11T14:29:33;3.30;;;1.65;;
62509;SDS011;48558;48.242;11.654;2022-08-11T14:34:50;1.77;;;1.50;;
62509;SDS011;48558;48.242;11.654;2022-08-11T14:39:57;1.67;;;1.58;;
62509;SDS011;48558;48.242;11.654;2022-08-11T14:45:07;3.08;;;2.10;;
62509;SDS011;48558;48.242;11.654;2022-08-11T14:50:51;1.88;;;1.70;;
62509;SDS011;48558;48.242;11.654;2022-08-11T14:55:55;1.58;;;1.55;;
62509;SDS011;48558;48.242;11.654;2022-08-11T15:01:17;1.70;;;1.60;;
62509;SDS011;48558;48.242;11.654;2022-08-11T15:06:51;1.83;;;1.70;;
62509;SDS011;48558;48.242;11.654;2022-08-11T15:11:55;1.73;;;1.45;;
62509;SDS011;48558;48.242;11.654;2022-08-11T15:17:30;1.75;;;1.65;;
62509;SDS011;48558;48.242;11.654;2022-08-11T15:22:44;1.50;;;1.40;;
62509;SDS011;48558;48.242;11.654;2022-08-11T15:28:06;1.60;;;1.42;;
62509;SDS011;48558;48.242;11.654;2022-08-11T15:33:39;1.67;;;1.27;;
62509;SDS011;48558;48.242;11.654;2022-08-11T15:39:08;1.35;;;1.20;;
62509;SDS011;48558;48.242;11.654;2022-08-11T15:44:21;4.30;;;1.40;;
62509;SDS011;48558;48.242;11.654;2022-08-11T15:50:04;2.20;;;1.58;;
62509;SDS011;48558;48.242;11.654;2022-08-11T15:55:17;2.95;;;1.60;;
62509;SDS011;48558;48.242;11.654;2022-08-11T16:00:21;1.80;;;1.70;;
62509;SDS011;48558;48.242;11.654;2022-08-11T16:05:45;2.70;;;1.77;;
62509;SDS011;48558;48.242;11.654;2022-08-11T16:10:54;1.77;;;1.52;;
62509;SDS011;48558;48.242;11.654;2022-08-11T16:15:59;1.73;;;1.60;;
62509;SDS011;48558;48.242;11.654;2022-08-11T16:21:17;1.53;;;1.43;;
62509;SDS011;48558;48.242;11.654;2022-08-11T16:26:38;2.65;;;1.67;;
62509;SDS011;48558;48.242;11.654;2022-08-11T16:32:03;2.33;;;1.60;;
62509;SDS011;48558;48.242;11.654;2022-08-11T16:37:20;1.48;;;1.38;;
62509;SDS011;48558;48.242;11.654;2022-08-11T16:42:45;2.35;;;1.42;;
62509;SDS011;48558;48.242;11.654;2022-08-11T16:48:13;1.20;;;1.20;;
62509;SDS011;48558;48.242;11.654;2022-08-11T16:53:37;3.70;;;1.42;;
62509;SDS011;48558;48.242;11.654;2022-08-11T16:59:04;1.80;;;1.50;;
62509;SDS011;48558;48.242;11.654;2022-08-11T17:09:46;1.58;;;1.48;;
62509;SDS011;48558;48.242;11.654;2022-08-11T17:15:31;2.58;;;2.00;;
62509;SDS011;48558;48.242;11.654;2022-08-11T17:20:54;1.70;;;1.60;;
62509;SDS011;48558;48.242;11.654;2022-08-11T17:25:59;3.00;;;1.50;;
62509;SDS011;48558;48.242;11.654;2022-08-11T17:31:05;3.65;;;1.50;;
62509;SDS011;48558;48.242;11.654;2022-08-11T17:36:30;2.25;;;1.48;;
62509;SDS011;48558;48.242;11.654;2022-08-11T17:41:35;1.55;;;1.45;;
62509;SDS011;48558;48.242;11.654;2022-08-11T17:46:57;4.68;;;1.55;;
62509;SDS011;48558;48.242;11.654;2022-08-11T17:57:47;3.63;;;1.58;;
62509;SDS011;48558;48.242;11.654;2022-08-11T18:03:11;1.85;;;1.35;;
62509;SDS011;48558;48.242;11.654;2022-08-11T18:08:33;2.92;;;1.48;;
62509;SDS011;48558;48.242;11.654;2022-08-11T18:14:00;2.53;;;1.38;;
62509;SDS011;48558;48.242;11.654;2022-08-11T18:19:25;1.58;;;1.48;;
62509;SDS011;48558;48.242;11.654;2022-08-11T18:24:52;1.85;;;1.48;;
62509;SDS011;48558;48.242;11.654;2022-08-11T18:30:17;2.20;;;1.40;;
62509;SDS011;48558;48.242;11.654;2022-08-11T18:35:39;1.73;;;1.52;;
62509;SDS011;48558;48.242;11.654;2022-08-11T18:41:03;1.55;;;1.45;;
62509;SDS011;48558;48.242;11.654;2022-08-11T18:46:35;1.73;;;1.63;;
62509;SDS011;48558;48.242;11.654;2022-08-11T18:52:01;2.33;;;2.00;;
62509;SDS011;48558;48.242;11.654;2022-08-11T18:57:24;2.50;;;1.95;;
62509;SDS011;48558;48.242;11.654;2022-08-11T19:02:55;3.85;;;2.10;;
62509;SDS011;48558;48.242;11.654;2022-08-11T19:08:20;1.98;;;1.80;;
62509;SDS011;48558;48.242;11.654;2022-08-11T19:13:44;3.20;;;1.77;;
62509;SDS011;48558;48.242;11.654;2022-08-11T19:19:09;4.32;;;1.90;;
62509;SDS011;48558;48.242;11.654;2022-08-11T19:24:36;1.73;;;1.63;;
62509;SDS011;48558;48.242;11.654;2022-08-11T19:29:59;5.28;;;2.00;;
62509;SDS011;48558;48.242;11.654;2022-08-11T19:35:22;3.47;;;1.70;;
62509;SDS011;48558;48.242;11.654;2022-08-11T19:40:45;1.58;;;1.48;;
62509;SDS011;48558;48.242;11.654;2022-08-11T19:46:08;1.60;;;1.48;;
62509;SDS011;48558;48.242;11.654;2022-08-11T19:51:31;2.15;;;1.50;;
62509;SDS011;48558;48.242;11.654;2022-08-11T19:56:56;4.90;;;1.67;;
62509;SDS011;48558;48.242;11.654;2022-08-11T20:02:18;3.78;;;1.80;;
62509;SDS011;48558;48.242;11.654;2022-08-11T20:07:40;2.08;;;1.35;;
62509;SDS011;48558;48.242;11.654;2022-08-11T20:13:05;2.63;;;1.60;;
62509;SDS011;48558;48.242;11.654;2022-08-11T20:18:28;3.47;;;1.88;;
62509;SDS011;48558;48.242;11.654;2022-08-11T20:23:50;5.40;;;1.90;;
62509;SDS011;48558;48.242;11.654;2022-08-11T20:29:12;3.08;;;1.80;;
62509;SDS011;48558;48.242;11.654;2022-08-11T20:34:34;2.00;;;1.73;;
62509;SDS011;48558;48.242;11.654;2022-08-11T20:40:00;2.10;;;1.90;;
62509;SDS011;48558;48.242;11.654;2022-08-11T20:45:25;4.22;;;2.13;;
62509;SDS011;48558;48.242;11.654;2022-08-11T20:50:56;3.90;;;1.50;;
62509;SDS011;48558;48.242;11.654;2022-08-11T20:56:19;1.70;;;1.60;;
62509;SDS011;48558;48.242;11.654;2022-08-11T21:01:43;2.90;;;1.90;;
62509;SDS011;48558;48.242;11.654;2022-08-11T21:07:11;5.28;;;1.80;;
62509;SDS011;48558;48.242;11.654;2022-08-11T21:19:33;2.38;;;1.80;;
62509;SDS011;48558;48.242;11.654;2022-08-11T21:32:46;2.22;;;1.80;;
62509;SDS011;48558;48.242;11.654;2022-08-11T21:52:28;2.60;;;1.63;;
62509;SDS011;48558;48.242;11.654;2022-08-11T21:59:05;3.80;;;1.80;;
62509;SDS011;48558;48.242;11.654;2022-08-11T22:05:31;2.08;;;1.88;;
62509;SDS011;48558;48.242;11.654;2022-08-11T22:11:47;1.77;;;1.67;;
62509;SDS011;48558;48.242;11.654;2022-08-11T22:17:56;4.63;;;1.70;;
62509;SDS011;48558;48.242;11.654;2022-08-11T22:24:13;3.67;;;1.90;;
62509;SDS011;48558;48.242;11.654;2022-08-11T22:30:13;2.05;;;1.88;;
62509;SDS011;48558;48.242;11.654;2022-08-11T22:35:48;9.77;;;1.92;;
62509;SDS011;48558;48.242;11.654;2022-08-11T22:48:15;2.35;;;2.15;;
62509;SDS011;48558;48.242;11.654;2022-08-11T23:00:52;2.28;;;1.92;;
62509;SDS011;48558;48.242;11.654;2022-08-11T23:13:12;3.90;;;2.08;;
62509;SDS011;48558;48.242;11.654;2022-08-11T23:19:51;2.85;;;2.05;;
62509;SDS011;48558;48.242;11.654;2022-08-11T23:25:50;2.60;;;2.40;;
62509;SDS011;48558;48.242;11.654;2022-08-11T23:31:44;3.20;;;2.20;;
62509;SDS011;48558;48.242;11.654;2022-08-11T23:37:27;2.83;;;2.22;;
62509;SDS011;48558;48.242;11.654;2022-08-11T23:49:10;3.50;;;2.20;;
62509;SDS011;48558;48.242;11.654;2022-08-11T23:54:41;4.22;;;2.20;;
